Kezdőlap
METAR-TAF:

METAR-TAF

Repülőterek :

Pöstyén, Szlovákia

földrajzi szélesség: 48-37-30N, földrajzi hosszúság: 017-49-43E, magasság: 163 m

Jelenlegi meteorológiai megfigyelések

A jelentés 45 perccel ezelõtt készült, 14:00 UTC
Észak-északnyugati szél 13 kt széllökések: 23 kt, északnyugati és észak-északkeleti között változik
Hőmérséklet 27°C
Páratartalom 39%
Légköri nyomás 1014 hPa
Látótávolság 10 km, vagy több
felhőtlen 1500 m magasságban, és nincs gomolyfelhõ

METAR: LZPP 231400Z 34013G23KT 310V020 CAVOK 27/12 Q1014

Idő: 16:45 (14:45 UTC)

Előrejelzés

A jelentés 30 perccel ezelõtt készült, 14:15 UTC
Az előrejelzés 23-én 15 óra UTC és 24-én 00 óra UTC között érvényes
Északi szél 10 kt
Látótávolság 10 km, vagy több
felhőtlen 1500 m magasságban, és nincs gomolyfelhõ

TAF: LZPP 231415Z 2315/2400 01010KT CAVOK

Meteorológiai megfigyelések és előrejelzések több, mint 4000 repülőtéren (METAR és TAF jelentéseket).

A térképen piros és sárga pontok jelzik az elérhető meteorológiai állomásokat.

Mozgassa az egeret a pont fölött, hogy megjelenjen az állomás neve.

Azután kattintson az időjárási megfigyelések és előrejelzések megtekintéséhez.

A térkép megváltoztatása: kattintson a fekete keresztel jelölt zöld gombra ráközelítéshez, a vonallal jelölt zöld gombra távolításhoz, vagy a zöld nyilakra a szomszédos térképek eléréséhez.


METAR-TAF: